METAR Data
IDs: Format: Raw Decoded Include TAF

Data at: 1014 UTC 28 Sep 2021

LYVR 281000Z 16009KT 5000 BR BKN003 OVC010 17/16 Q1019 NOSIG